sensor_id;sensor_type;location;lat;lon;timestamp;P1;durP1;ratioP1;P2;durP2;ratioP2
70683;SDS011;58263;48.146;11.440;2023-02-08T00:00:23;15.10;;;7.15;;
70683;SDS011;58263;48.146;11.440;2023-02-08T00:02:49;9.75;;;5.43;;
70683;SDS011;58263;48.146;11.440;2023-02-08T00:05:15;14.95;;;6.25;;
70683;SDS011;58263;48.146;11.440;2023-02-08T00:07:41;14.65;;;5.95;;
70683;SDS011;58263;48.146;11.440;2023-02-08T00:10:07;15.00;;;6.32;;
70683;SDS011;58263;48.146;11.440;2023-02-08T00:12:34;14.48;;;6.65;;
70683;SDS011;58263;48.146;11.440;2023-02-08T00:15:00;11.98;;;5.78;;
70683;SDS011;58263;48.146;11.440;2023-02-08T00:17:25;16.63;;;6.90;;
70683;SDS011;58263;48.146;11.440;2023-02-08T00:19:50;14.85;;;7.07;;
70683;SDS011;58263;48.146;11.440;2023-02-08T00:22:16;13.27;;;6.60;;
70683;SDS011;58263;48.146;11.440;2023-02-08T00:24:41;13.50;;;6.30;;
70683;SDS011;58263;48.146;11.440;2023-02-08T00:27:06;18.00;;;7.03;;
70683;SDS011;58263;48.146;11.440;2023-02-08T00:29:32;16.83;;;6.90;;
70683;SDS011;58263;48.146;11.440;2023-02-08T00:31:57;16.73;;;6.97;;
70683;SDS011;58263;48.146;11.440;2023-02-08T00:34:22;14.93;;;6.28;;
70683;SDS011;58263;48.146;11.440;2023-02-08T00:36:48;15.07;;;6.50;;
70683;SDS011;58263;48.146;11.440;2023-02-08T00:39:13;17.53;;;7.23;;
70683;SDS011;58263;48.146;11.440;2023-02-08T00:41:38;16.20;;;6.35;;
70683;SDS011;58263;48.146;11.440;2023-02-08T00:44:04;12.67;;;6.27;;
70683;SDS011;58263;48.146;11.440;2023-02-08T00:46:29;12.63;;;6.50;;
70683;SDS011;58263;48.146;11.440;2023-02-08T00:48:54;9.80;;;5.40;;
70683;SDS011;58263;48.146;11.440;2023-02-08T00:51:20;12.90;;;6.20;;
70683;SDS011;58263;48.146;11.440;2023-02-08T00:53:45;14.77;;;6.63;;
70683;SDS011;58263;48.146;11.440;2023-02-08T00:56:11;11.93;;;5.70;;
70683;SDS011;58263;48.146;11.440;2023-02-08T00:58:37;12.63;;;6.53;;
70683;SDS011;58263;48.146;11.440;2023-02-08T01:01:04;11.85;;;5.65;;
70683;SDS011;58263;48.146;11.440;2023-02-08T01:03:31;13.20;;;6.80;;
70683;SDS011;58263;48.146;11.440;2023-02-08T01:06:02;14.88;;;7.07;;
70683;SDS011;58263;48.146;11.440;2023-02-08T01:08:30;13.18;;;6.43;;
70683;SDS011;58263;48.146;11.440;2023-02-08T01:11:06;15.03;;;6.07;;
70683;SDS011;58263;48.146;11.440;2023-02-08T01:13:34;13.68;;;6.03;;
70683;SDS011;58263;48.146;11.440;2023-02-08T01:16:05;14.95;;;6.45;;
70683;SDS011;58263;48.146;11.440;2023-02-08T01:18:34;18.90;;;6.53;;
70683;SDS011;58263;48.146;11.440;2023-02-08T01:21:06;14.70;;;6.60;;
70683;SDS011;58263;48.146;11.440;2023-02-08T01:23:33;14.57;;;6.55;;
70683;SDS011;58263;48.146;11.440;2023-02-08T01:25:59;16.55;;;6.70;;
70683;SDS011;58263;48.146;11.440;2023-02-08T01:28:24;17.73;;;7.63;;
70683;SDS011;58263;48.146;11.440;2023-02-08T01:30:50;12.18;;;5.55;;
70683;SDS011;58263;48.146;11.440;2023-02-08T01:33:15;12.67;;;6.33;;
70683;SDS011;58263;48.146;11.440;2023-02-08T01:35:40;14.53;;;6.67;;
70683;SDS011;58263;48.146;11.440;2023-02-08T01:38:06;13.87;;;6.47;;
70683;SDS011;58263;48.146;11.440;2023-02-08T01:40:31;15.37;;;7.10;;
70683;SDS011;58263;48.146;11.440;2023-02-08T01:42:56;15.43;;;6.83;;
70683;SDS011;58263;48.146;11.440;2023-02-08T01:45:26;11.93;;;6.03;;
70683;SDS011;58263;48.146;11.440;2023-02-08T01:48:07;12.50;;;5.70;;
70683;SDS011;58263;48.146;11.440;2023-02-08T01:51:11;16.00;;;6.60;;
70683;SDS011;58263;48.146;11.440;2023-02-08T01:53:34;15.18;;;6.97;;
70683;SDS011;58263;48.146;11.440;2023-02-08T01:56:05;13.13;;;6.60;;
70683;SDS011;58263;48.146;11.440;2023-02-08T01:58:35;13.50;;;6.32;;
70683;SDS011;58263;48.146;11.440;2023-02-08T02:01:04;12.88;;;6.32;;
70683;SDS011;58263;48.146;11.440;2023-02-08T02:03:30;16.42;;;6.85;;
70683;SDS011;58263;48.146;11.440;2023-02-08T02:06:03;14.90;;;6.70;;
70683;SDS011;58263;48.146;11.440;2023-02-08T02:08:35;13.70;;;6.78;;
70683;SDS011;58263;48.146;11.440;2023-02-08T02:11:00;16.95;;;7.70;;
70683;SDS011;58263;48.146;11.440;2023-02-08T02:13:26;13.05;;;6.45;;
70683;SDS011;58263;48.146;11.440;2023-02-08T02:15:52;15.73;;;6.85;;
70683;SDS011;58263;48.146;11.440;2023-02-08T02:18:28;16.65;;;6.43;;
70683;SDS011;58263;48.146;11.440;2023-02-08T02:34:25;11.20;;;6.00;;
70683;SDS011;58263;48.146;11.440;2023-02-08T02:42:50;21.55;;;7.07;;
70683;SDS011;58263;48.146;11.440;2023-02-08T02:45:55;14.38;;;6.57;;
70683;SDS011;58263;48.146;11.440;2023-02-08T02:49:12;15.90;;;8.23;;
70683;SDS011;58263;48.146;11.440;2023-02-08T02:51:28;14.93;;;6.70;;
70683;SDS011;58263;48.146;11.440;2023-02-08T02:54:10;18.30;;;6.95;;
70683;SDS011;58263;48.146;11.440;2023-02-08T02:56:41;15.88;;;7.63;;
70683;SDS011;58263;48.146;11.440;2023-02-08T02:59:10;13.50;;;6.40;;
70683;SDS011;58263;48.146;11.440;2023-02-08T03:01:37;14.35;;;6.25;;
70683;SDS011;58263;48.146;11.440;2023-02-08T03:12:29;16.48;;;7.15;;
70683;SDS011;58263;48.146;11.440;2023-02-08T03:20:24;15.73;;;7.07;;
70683;SDS011;58263;48.146;11.440;2023-02-08T03:22:57;15.73;;;6.55;;
70683;SDS011;58263;48.146;11.440;2023-02-08T03:28:17;13.23;;;7.72;;
70683;SDS011;58263;48.146;11.440;2023-02-08T03:31:06;16.42;;;7.43;;
70683;SDS011;58263;48.146;11.440;2023-02-08T03:33:38;15.63;;;6.93;;
70683;SDS011;58263;48.146;11.440;2023-02-08T03:36:13;15.15;;;6.47;;
70683;SDS011;58263;48.146;11.440;2023-02-08T03:38:47;14.93;;;6.65;;
70683;SDS011;58263;48.146;11.440;2023-02-08T03:41:18;16.67;;;7.82;;
70683;SDS011;58263;48.146;11.440;2023-02-08T03:44:08;17.73;;;6.97;;
70683;SDS011;58263;48.146;11.440;2023-02-08T03:46:38;15.88;;;7.40;;
70683;SDS011;58263;48.146;11.440;2023-02-08T03:49:07;18.23;;;7.45;;
70683;SDS011;58263;48.146;11.440;2023-02-08T03:51:37;17.33;;;7.10;;
70683;SDS011;58263;48.146;11.440;2023-02-08T03:54:05;15.25;;;7.22;;
70683;SDS011;58263;48.146;11.440;2023-02-08T03:59:18;16.90;;;6.82;;
70683;SDS011;58263;48.146;11.440;2023-02-08T04:01:59;18.65;;;7.43;;
70683;SDS011;58263;48.146;11.440;2023-02-08T04:04:28;17.92;;;7.07;;
70683;SDS011;58263;48.146;11.440;2023-02-08T04:06:56;13.70;;;7.00;;
70683;SDS011;58263;48.146;11.440;2023-02-08T04:09:22;14.75;;;6.70;;
70683;SDS011;58263;48.146;11.440;2023-02-08T04:11:47;14.75;;;6.85;;
70683;SDS011;58263;48.146;11.440;2023-02-08T04:14:12;18.33;;;7.77;;
70683;SDS011;58263;48.146;11.440;2023-02-08T04:16:38;17.53;;;7.60;;
70683;SDS011;58263;48.146;11.440;2023-02-08T04:19:03;17.57;;;7.27;;
70683;SDS011;58263;48.146;11.440;2023-02-08T04:21:28;17.53;;;8.00;;
70683;SDS011;58263;48.146;11.440;2023-02-08T04:23:54;16.60;;;6.80;;
70683;SDS011;58263;48.146;11.440;2023-02-08T04:26:19;18.70;;;7.20;;
70683;SDS011;58263;48.146;11.440;2023-02-08T04:28:44;21.50;;;8.07;;
70683;SDS011;58263;48.146;11.440;2023-02-08T04:31:09;17.97;;;7.47;;
70683;SDS011;58263;48.146;11.440;2023-02-08T04:33:35;13.23;;;6.53;;
70683;SDS011;58263;48.146;11.440;2023-02-08T04:36:00;20.63;;;7.77;;
70683;SDS011;58263;48.146;11.440;2023-02-08T04:38:25;12.10;;;6.97;;
70683;SDS011;58263;48.146;11.440;2023-02-08T04:40:51;17.40;;;7.20;;
70683;SDS011;58263;48.146;11.440;2023-02-08T04:43:16;12.40;;;6.07;;
70683;SDS011;58263;48.146;11.440;2023-02-08T04:45:41;15.73;;;7.50;;
70683;SDS011;58263;48.146;11.440;2023-02-08T04:48:06;15.23;;;6.60;;
70683;SDS011;58263;48.146;11.440;2023-02-08T04:50:32;21.33;;;7.87;;
70683;SDS011;58263;48.146;11.440;2023-02-08T04:52:58;16.73;;;7.15;;
70683;SDS011;58263;48.146;11.440;2023-02-08T04:55:24;14.93;;;6.30;;
70683;SDS011;58263;48.146;11.440;2023-02-08T04:57:49;18.05;;;8.18;;
70683;SDS011;58263;48.146;11.440;2023-02-08T05:00:14;22.73;;;7.83;;
70683;SDS011;58263;48.146;11.440;2023-02-08T05:02:40;16.63;;;7.72;;
70683;SDS011;58263;48.146;11.440;2023-02-08T05:05:06;16.52;;;7.80;;
70683;SDS011;58263;48.146;11.440;2023-02-08T05:07:31;18.00;;;7.47;;
70683;SDS011;58263;48.146;11.440;2023-02-08T05:09:56;17.53;;;7.60;;
70683;SDS011;58263;48.146;11.440;2023-02-08T05:12:22;16.27;;;7.20;;
70683;SDS011;58263;48.146;11.440;2023-02-08T05:14:47;17.67;;;8.05;;
70683;SDS011;58263;48.146;11.440;2023-02-08T05:17:12;18.83;;;7.40;;
70683;SDS011;58263;48.146;11.440;2023-02-08T05:19:38;22.73;;;8.77;;
70683;SDS011;58263;48.146;11.440;2023-02-08T05:22:03;18.30;;;8.33;;
70683;SDS011;58263;48.146;11.440;2023-02-08T05:24:28;21.70;;;8.73;;
70683;SDS011;58263;48.146;11.440;2023-02-08T05:26:53;19.37;;;7.30;;
70683;SDS011;58263;48.146;11.440;2023-02-08T05:29:19;17.47;;;7.77;;
70683;SDS011;58263;48.146;11.440;2023-02-08T05:31:44;13.27;;;6.23;;
70683;SDS011;58263;48.146;11.440;2023-02-08T05:34:09;14.57;;;7.13;;
70683;SDS011;58263;48.146;11.440;2023-02-08T05:36:36;15.27;;;7.57;;
70683;SDS011;58263;48.146;11.440;2023-02-08T05:39:01;18.43;;;7.40;;
70683;SDS011;58263;48.146;11.440;2023-02-08T05:41:26;18.80;;;7.88;;
70683;SDS011;58263;48.146;11.440;2023-02-08T05:43:52;18.00;;;8.00;;
70683;SDS011;58263;48.146;11.440;2023-02-08T05:46:17;17.03;;;9.03;;
70683;SDS011;58263;48.146;11.440;2023-02-08T05:48:42;13.63;;;7.27;;
70683;SDS011;58263;48.146;11.440;2023-02-08T05:51:08;16.73;;;7.27;;
70683;SDS011;58263;48.146;11.440;2023-02-08T05:53:33;21.05;;;7.68;;
70683;SDS011;58263;48.146;11.440;2023-02-08T05:55:59;17.55;;;8.55;;
70683;SDS011;58263;48.146;11.440;2023-02-08T05:58:24;23.10;;;9.02;;
70683;SDS011;58263;48.146;11.440;2023-02-08T06:00:50;17.30;;;8.73;;
70683;SDS011;58263;48.146;11.440;2023-02-08T06:03:17;20.02;;;8.25;;
70683;SDS011;58263;48.146;11.440;2023-02-08T06:05:42;17.15;;;7.03;;
70683;SDS011;58263;48.146;11.440;2023-02-08T06:08:08;22.27;;;9.00;;
70683;SDS011;58263;48.146;11.440;2023-02-08T06:10:33;14.27;;;7.45;;
70683;SDS011;58263;48.146;11.440;2023-02-08T06:12:59;17.05;;;7.88;;
70683;SDS011;58263;48.146;11.440;2023-02-08T06:18:54;17.42;;;7.60;;
70683;SDS011;58263;48.146;11.440;2023-02-08T06:21:19;20.65;;;8.35;;
70683;SDS011;58263;48.146;11.440;2023-02-08T06:23:45;18.02;;;7.93;;
70683;SDS011;58263;48.146;11.440;2023-02-08T06:26:10;19.50;;;8.63;;
70683;SDS011;58263;48.146;11.440;2023-02-08T06:28:35;18.73;;;9.00;;
70683;SDS011;58263;48.146;11.440;2023-02-08T06:31:00;21.07;;;7.87;;
70683;SDS011;58263;48.146;11.440;2023-02-08T06:33:26;17.23;;;7.57;;
70683;SDS011;58263;48.146;11.440;2023-02-08T06:35:51;22.73;;;8.50;;
70683;SDS011;58263;48.146;11.440;2023-02-08T06:38:17;18.10;;;8.60;;
70683;SDS011;58263;48.146;11.440;2023-02-08T06:40:44;22.85;;;8.68;;
70683;SDS011;58263;48.146;11.440;2023-02-08T06:43:10;23.25;;;9.07;;
70683;SDS011;58263;48.146;11.440;2023-02-08T06:45:36;20.50;;;8.43;;
70683;SDS011;58263;48.146;11.440;2023-02-08T06:48:01;20.53;;;9.50;;
70683;SDS011;58263;48.146;11.440;2023-02-08T06:50:26;18.90;;;8.88;;
70683;SDS011;58263;48.146;11.440;2023-02-08T06:52:52;20.73;;;8.97;;
70683;SDS011;58263;48.146;11.440;2023-02-08T06:55:17;20.50;;;8.10;;
70683;SDS011;58263;48.146;11.440;2023-02-08T06:57:42;18.97;;;8.70;;
70683;SDS011;58263;48.146;11.440;2023-02-08T07:00:08;19.10;;;8.93;;
70683;SDS011;58263;48.146;11.440;2023-02-08T07:02:33;16.40;;;8.10;;
70683;SDS011;58263;48.146;11.440;2023-02-08T07:04:59;20.57;;;8.03;;
70683;SDS011;58263;48.146;11.440;2023-02-08T07:07:24;18.17;;;8.60;;
70683;SDS011;58263;48.146;11.440;2023-02-08T07:09:49;20.58;;;8.82;;
70683;SDS011;58263;48.146;11.440;2023-02-08T07:12:15;18.23;;;8.40;;
70683;SDS011;58263;48.146;11.440;2023-02-08T07:14:41;17.60;;;9.15;;
70683;SDS011;58263;48.146;11.440;2023-02-08T07:17:07;20.30;;;8.82;;
70683;SDS011;58263;48.146;11.440;2023-02-08T07:19:33;17.85;;;8.73;;
70683;SDS011;58263;48.146;11.440;2023-02-08T07:21:59;16.05;;;8.02;;
70683;SDS011;58263;48.146;11.440;2023-02-08T07:24:35;18.23;;;8.23;;
70683;SDS011;58263;48.146;11.440;2023-02-08T07:27:02;20.35;;;8.60;;
70683;SDS011;58263;48.146;11.440;2023-02-08T07:29:29;19.73;;;9.20;;
70683;SDS011;58263;48.146;11.440;2023-02-08T07:31:57;16.60;;;8.00;;
70683;SDS011;58263;48.146;11.440;2023-02-08T07:34:24;18.75;;;9.00;;
70683;SDS011;58263;48.146;11.440;2023-02-08T07:36:50;22.75;;;9.18;;
70683;SDS011;58263;48.146;11.440;2023-02-08T07:39:15;17.80;;;7.97;;
70683;SDS011;58263;48.146;11.440;2023-02-08T07:41:40;22.10;;;9.88;;
70683;SDS011;58263;48.146;11.440;2023-02-08T07:44:06;19.43;;;9.13;;
70683;SDS011;58263;48.146;11.440;2023-02-08T07:46:31;24.83;;;9.02;;
70683;SDS011;58263;48.146;11.440;2023-02-08T07:48:57;21.35;;;8.70;;
70683;SDS011;58263;48.146;11.440;2023-02-08T07:51:22;17.57;;;8.37;;
70683;SDS011;58263;48.146;11.440;2023-02-08T07:53:47;19.60;;;8.93;;
70683;SDS011;58263;48.146;11.440;2023-02-08T07:56:13;17.05;;;7.93;;
70683;SDS011;58263;48.146;11.440;2023-02-08T07:58:42;18.15;;;8.77;;
70683;SDS011;58263;48.146;11.440;2023-02-08T08:01:07;19.97;;;7.93;;
70683;SDS011;58263;48.146;11.440;2023-02-08T08:03:32;15.50;;;8.13;;
70683;SDS011;58263;48.146;11.440;2023-02-08T08:05:58;18.20;;;9.07;;
70683;SDS011;58263;48.146;11.440;2023-02-08T08:08:23;20.57;;;7.67;;
70683;SDS011;58263;48.146;11.440;2023-02-08T08:10:48;18.20;;;8.67;;
70683;SDS011;58263;48.146;11.440;2023-02-08T08:13:14;18.20;;;9.88;;
70683;SDS011;58263;48.146;11.440;2023-02-08T08:15:40;17.38;;;8.95;;
70683;SDS011;58263;48.146;11.440;2023-02-08T08:18:05;16.37;;;8.33;;
70683;SDS011;58263;48.146;11.440;2023-02-08T08:20:31;20.00;;;9.25;;
70683;SDS011;58263;48.146;11.440;2023-02-08T08:22:57;26.38;;;9.73;;
70683;SDS011;58263;48.146;11.440;2023-02-08T08:25:22;16.03;;;8.00;;
70683;SDS011;58263;48.146;11.440;2023-02-08T08:27:47;18.70;;;8.45;;
70683;SDS011;58263;48.146;11.440;2023-02-08T08:30:13;17.42;;;8.80;;
70683;SDS011;58263;48.146;11.440;2023-02-08T08:32:40;16.00;;;8.05;;
70683;SDS011;58263;48.146;11.440;2023-02-08T08:35:05;13.73;;;7.43;;
70683;SDS011;58263;48.146;11.440;2023-02-08T08:37:32;17.60;;;8.75;;
70683;SDS011;58263;48.146;11.440;2023-02-08T08:39:57;21.05;;;8.35;;
70683;SDS011;58263;48.146;11.440;2023-02-08T08:42:23;18.00;;;7.87;;
70683;SDS011;58263;48.146;11.440;2023-02-08T08:44:50;15.73;;;8.05;;
70683;SDS011;58263;48.146;11.440;2023-02-08T08:47:15;22.45;;;9.00;;
70683;SDS011;58263;48.146;11.440;2023-02-08T08:49:41;21.75;;;8.93;;
70683;SDS011;58263;48.146;11.440;2023-02-08T08:52:07;18.70;;;8.38;;
70683;SDS011;58263;48.146;11.440;2023-02-08T08:54:33;18.00;;;8.13;;
70683;SDS011;58263;48.146;11.440;2023-02-08T08:56:59;20.73;;;9.18;;
70683;SDS011;58263;48.146;11.440;2023-02-08T08:59:25;19.60;;;9.10;;
70683;SDS011;58263;48.146;11.440;2023-02-08T09:01:51;18.40;;;8.25;;
70683;SDS011;58263;48.146;11.440;2023-02-08T09:04:16;16.73;;;8.27;;
70683;SDS011;58263;48.146;11.440;2023-02-08T09:06:41;22.10;;;8.05;;
70683;SDS011;58263;48.146;11.440;2023-02-08T09:09:07;20.63;;;8.20;;
70683;SDS011;58263;48.146;11.440;2023-02-08T09:11:33;17.92;;;8.05;;
70683;SDS011;58263;48.146;11.440;2023-02-08T09:14:00;16.20;;;8.15;;
70683;SDS011;58263;48.146;11.440;2023-02-08T09:16:26;20.95;;;8.27;;
70683;SDS011;58263;48.146;11.440;2023-02-08T09:18:52;17.90;;;8.30;;
70683;SDS011;58263;48.146;11.440;2023-02-08T09:21:19;18.33;;;8.33;;
70683;SDS011;58263;48.146;11.440;2023-02-08T09:23:46;20.02;;;8.38;;
70683;SDS011;58263;48.146;11.440;2023-02-08T09:26:13;15.23;;;7.15;;
70683;SDS011;58263;48.146;11.440;2023-02-08T09:28:40;16.98;;;8.25;;
70683;SDS011;58263;48.146;11.440;2023-02-08T09:31:19;18.10;;;8.65;;
70683;SDS011;58263;48.146;11.440;2023-02-08T09:33:47;16.73;;;8.75;;
70683;SDS011;58263;48.146;11.440;2023-02-08T09:36:14;18.05;;;8.05;;
70683;SDS011;58263;48.146;11.440;2023-02-08T09:38:39;16.05;;;8.82;;
70683;SDS011;58263;48.146;11.440;2023-02-08T09:43:55;16.70;;;9.23;;
70683;SDS011;58263;48.146;11.440;2023-02-08T09:46:39;17.77;;;8.45;;
70683;SDS011;58263;48.146;11.440;2023-02-08T09:49:17;16.75;;;8.00;;
70683;SDS011;58263;48.146;11.440;2023-02-08T09:51:48;14.77;;;8.25;;
70683;SDS011;58263;48.146;11.440;2023-02-08T09:54:25;18.20;;;8.73;;
70683;SDS011;58263;48.146;11.440;2023-02-08T09:56:55;17.60;;;8.27;;
70683;SDS011;58263;48.146;11.440;2023-02-08T09:59:25;20.13;;;8.43;;
70683;SDS011;58263;48.146;11.440;2023-02-08T10:04:57;15.48;;;9.05;;
70683;SDS011;58263;48.146;11.440;2023-02-08T10:07:26;19.85;;;7.65;;
70683;SDS011;58263;48.146;11.440;2023-02-08T10:09:57;16.45;;;8.05;;
70683;SDS011;58263;48.146;11.440;2023-02-08T10:17:34;18.13;;;8.90;;
70683;SDS011;58263;48.146;11.440;2023-02-08T10:28:44;23.52;;;9.70;;
70683;SDS011;58263;48.146;11.440;2023-02-08T10:34:02;16.70;;;9.50;;
70683;SDS011;58263;48.146;11.440;2023-02-08T10:36:42;17.42;;;8.30;;
70683;SDS011;58263;48.146;11.440;2023-02-08T10:39:18;13.55;;;7.22;;
70683;SDS011;58263;48.146;11.440;2023-02-08T10:41:50;18.30;;;8.77;;
70683;SDS011;58263;48.146;11.440;2023-02-08T10:49:47;19.23;;;8.60;;
70683;SDS011;58263;48.146;11.440;2023-02-08T10:52:23;13.80;;;7.72;;
70683;SDS011;58263;48.146;11.440;2023-02-08T10:54:48;18.87;;;8.70;;
70683;SDS011;58263;48.146;11.440;2023-02-08T10:57:21;15.77;;;8.57;;
70683;SDS011;58263;48.146;11.440;2023-02-08T10:59:50;15.75;;;8.48;;
70683;SDS011;58263;48.146;11.440;2023-02-08T11:05:14;15.15;;;9.48;;
70683;SDS011;58263;48.146;11.440;2023-02-08T11:08:03;14.75;;;8.57;;
70683;SDS011;58263;48.146;11.440;2023-02-08T11:10:38;13.98;;;8.95;;
70683;SDS011;58263;48.146;11.440;2023-02-08T11:15:45;15.10;;;8.65;;
70683;SDS011;58263;48.146;11.440;2023-02-08T11:20:56;14.75;;;9.48;;
70683;SDS011;58263;48.146;11.440;2023-02-08T11:23:25;15.77;;;9.48;;
70683;SDS011;58263;48.146;11.440;2023-02-08T11:25:54;17.48;;;9.90;;
70683;SDS011;58263;48.146;11.440;2023-02-08T11:28:39;15.05;;;8.95;;
70683;SDS011;58263;48.146;11.440;2023-02-08T11:31:16;17.75;;;10.85;;
70683;SDS011;58263;48.146;11.440;2023-02-08T11:33:57;17.05;;;10.20;;
70683;SDS011;58263;48.146;11.440;2023-02-08T11:36:24;16.70;;;10.70;;
70683;SDS011;58263;48.146;11.440;2023-02-08T11:38:50;14.65;;;9.52;;
70683;SDS011;58263;48.146;11.440;2023-02-08T11:41:16;18.80;;;11.70;;
70683;SDS011;58263;48.146;11.440;2023-02-08T11:44:19;18.98;;;10.68;;
70683;SDS011;58263;48.146;11.440;2023-02-08T11:46:43;17.17;;;10.65;;
70683;SDS011;58263;48.146;11.440;2023-02-08T11:49:25;17.52;;;10.85;;
70683;SDS011;58263;48.146;11.440;2023-02-08T11:51:54;16.10;;;9.55;;
70683;SDS011;58263;48.146;11.440;2023-02-08T11:57:19;15.57;;;10.25;;
70683;SDS011;58263;48.146;11.440;2023-02-08T11:59:49;15.43;;;9.60;;
70683;SDS011;58263;48.146;11.440;2023-02-08T12:02:34;18.92;;;10.05;;
70683;SDS011;58263;48.146;11.440;2023-02-08T12:05:02;19.20;;;11.35;;
70683;SDS011;58263;48.146;11.440;2023-02-08T12:07:39;24.33;;;12.57;;
70683;SDS011;58263;48.146;11.440;2023-02-08T12:13:25;17.00;;;10.68;;
70683;SDS011;58263;48.146;11.440;2023-02-08T12:16:11;16.80;;;10.57;;
70683;SDS011;58263;48.146;11.440;2023-02-08T12:21:31;16.75;;;9.73;;
70683;SDS011;58263;48.146;11.440;2023-02-08T12:29:58;18.05;;;10.70;;
70683;SDS011;58263;48.146;11.440;2023-02-08T12:32:48;17.85;;;10.43;;
70683;SDS011;58263;48.146;11.440;2023-02-08T12:41:26;18.55;;;11.80;;
70683;SDS011;58263;48.146;11.440;2023-02-08T12:44:29;18.38;;;11.32;;
70683;SDS011;58263;48.146;11.440;2023-02-08T12:49:59;21.20;;;10.40;;
70683;SDS011;58263;48.146;11.440;2023-02-08T12:55:33;21.70;;;11.85;;
70683;SDS011;58263;48.146;11.440;2023-02-08T12:58:21;17.52;;;11.00;;
70683;SDS011;58263;48.146;11.440;2023-02-08T13:00:52;19.40;;;10.57;;
70683;SDS011;58263;48.146;11.440;2023-02-08T13:03:26;20.60;;;12.30;;
70683;SDS011;58263;48.146;11.440;2023-02-08T13:05:55;22.50;;;11.73;;
70683;SDS011;58263;48.146;11.440;2023-02-08T13:08:28;16.20;;;10.63;;
70683;SDS011;58263;48.146;11.440;2023-02-08T13:11:05;20.33;;;12.00;;
70683;SDS011;58263;48.146;11.440;2023-02-08T13:13:43;21.98;;;11.77;;
70683;SDS011;58263;48.146;11.440;2023-02-08T13:16:21;17.00;;;10.60;;
70683;SDS011;58263;48.146;11.440;2023-02-08T13:18:54;22.30;;;11.85;;
70683;SDS011;58263;48.146;11.440;2023-02-08T13:21:30;18.65;;;10.88;;
70683;SDS011;58263;48.146;11.440;2023-02-08T13:24:02;22.83;;;11.88;;
70683;SDS011;58263;48.146;11.440;2023-02-08T13:26:36;20.05;;;11.15;;
70683;SDS011;58263;48.146;11.440;2023-02-08T13:29:04;21.48;;;11.15;;
70683;SDS011;58263;48.146;11.440;2023-02-08T13:31:39;19.23;;;11.32;;
70683;SDS011;58263;48.146;11.440;2023-02-08T13:34:28;19.95;;;11.07;;
70683;SDS011;58263;48.146;11.440;2023-02-08T13:37:02;24.30;;;10.70;;
70683;SDS011;58263;48.146;11.440;2023-02-08T13:42:01;17.45;;;9.48;;
70683;SDS011;58263;48.146;11.440;2023-02-08T13:44:37;18.73;;;11.27;;
70683;SDS011;58263;48.146;11.440;2023-02-08T13:47:05;20.35;;;11.45;;
70683;SDS011;58263;48.146;11.440;2023-02-08T13:49:42;18.15;;;10.27;;
70683;SDS011;58263;48.146;11.440;2023-02-08T13:57:55;16.45;;;9.75;;
70683;SDS011;58263;48.146;11.440;2023-02-08T14:00:26;19.85;;;10.27;;
70683;SDS011;58263;48.146;11.440;2023-02-08T14:02:56;19.90;;;10.57;;
70683;SDS011;58263;48.146;11.440;2023-02-08T14:08:00;20.17;;;10.02;;
70683;SDS011;58263;48.146;11.440;2023-02-08T14:10:32;18.63;;;10.07;;
70683;SDS011;58263;48.146;11.440;2023-02-08T14:13:06;20.05;;;10.70;;
70683;SDS011;58263;48.146;11.440;2023-02-08T14:15:47;21.30;;;10.10;;
70683;SDS011;58263;48.146;11.440;2023-02-08T14:18:51;18.67;;;9.82;;
70683;SDS011;58263;48.146;11.440;2023-02-08T14:21:25;18.83;;;10.52;;
70683;SDS011;58263;48.146;11.440;2023-02-08T14:26:48;18.08;;;9.50;;
70683;SDS011;58263;48.146;11.440;2023-02-08T14:29:19;19.83;;;9.57;;
70683;SDS011;58263;48.146;11.440;2023-02-08T14:31:48;16.67;;;9.32;;
70683;SDS011;58263;48.146;11.440;2023-02-08T14:37:05;18.10;;;9.55;;
70683;SDS011;58263;48.146;11.440;2023-02-08T14:40:22;15.43;;;8.98;;
70683;SDS011;58263;48.146;11.440;2023-02-08T14:45:31;13.63;;;7.43;;
70683;SDS011;58263;48.146;11.440;2023-02-08T14:50:49;17.33;;;9.05;;
70683;SDS011;58263;48.146;11.440;2023-02-08T14:53:24;19.90;;;9.32;;
70683;SDS011;58263;48.146;11.440;2023-02-08T14:55:57;18.13;;;8.68;;
70683;SDS011;58263;48.146;11.440;2023-02-08T14:58:31;19.75;;;9.52;;
70683;SDS011;58263;48.146;11.440;2023-02-08T15:01:01;21.55;;;8.27;;
70683;SDS011;58263;48.146;11.440;2023-02-08T15:03:42;17.25;;;9.05;;
70683;SDS011;58263;48.146;11.440;2023-02-08T15:06:25;17.13;;;8.02;;
70683;SDS011;58263;48.146;11.440;2023-02-08T15:09:00;17.58;;;8.60;;
70683;SDS011;58263;48.146;11.440;2023-02-08T15:11:30;15.80;;;8.18;;
70683;SDS011;58263;48.146;11.440;2023-02-08T15:13:59;15.98;;;8.05;;
70683;SDS011;58263;48.146;11.440;2023-02-08T15:16:29;16.77;;;8.90;;
70683;SDS011;58263;48.146;11.440;2023-02-08T15:18:58;17.85;;;8.40;;
70683;SDS011;58263;48.146;11.440;2023-02-08T15:21:28;17.55;;;8.20;;
70683;SDS011;58263;48.146;11.440;2023-02-08T15:23:59;15.68;;;7.93;;
70683;SDS011;58263;48.146;11.440;2023-02-08T15:26:27;17.50;;;8.25;;
70683;SDS011;58263;48.146;11.440;2023-02-08T15:28:53;14.07;;;7.38;;
70683;SDS011;58263;48.146;11.440;2023-02-08T15:31:22;13.85;;;6.88;;
70683;SDS011;58263;48.146;11.440;2023-02-08T15:33:53;19.10;;;8.45;;
70683;SDS011;58263;48.146;11.440;2023-02-08T15:36:32;13.57;;;7.28;;
70683;SDS011;58263;48.146;11.440;2023-02-08T15:39:02;14.13;;;7.57;;
70683;SDS011;58263;48.146;11.440;2023-02-08T15:41:47;15.30;;;6.88;;
70683;SDS011;58263;48.146;11.440;2023-02-08T15:44:16;16.20;;;7.85;;
70683;SDS011;58263;48.146;11.440;2023-02-08T15:46:45;13.38;;;6.95;;
70683;SDS011;58263;48.146;11.440;2023-02-08T15:49:13;16.52;;;6.82;;
70683;SDS011;58263;48.146;11.440;2023-02-08T15:51:40;14.45;;;7.22;;
70683;SDS011;58263;48.146;11.440;2023-02-08T15:54:10;19.25;;;7.68;;
70683;SDS011;58263;48.146;11.440;2023-02-08T15:56:41;14.95;;;8.07;;
70683;SDS011;58263;48.146;11.440;2023-02-08T15:59:18;16.40;;;7.72;;
70683;SDS011;58263;48.146;11.440;2023-02-08T16:01:47;16.40;;;7.63;;
70683;SDS011;58263;48.146;11.440;2023-02-08T16:04:13;16.27;;;8.43;;
70683;SDS011;58263;48.146;11.440;2023-02-08T16:06:44;16.80;;;7.65;;
70683;SDS011;58263;48.146;11.440;2023-02-08T16:09:27;17.25;;;8.18;;
70683;SDS011;58263;48.146;11.440;2023-02-08T16:11:55;14.65;;;7.45;;
70683;SDS011;58263;48.146;11.440;2023-02-08T16:14:23;17.60;;;7.20;;
70683;SDS011;58263;48.146;11.440;2023-02-08T16:16:52;17.95;;;8.18;;
70683;SDS011;58263;48.146;11.440;2023-02-08T16:21:44;13.33;;;7.17;;
70683;SDS011;58263;48.146;11.440;2023-02-08T16:26:42;20.10;;;8.03;;
70683;SDS011;58263;48.146;11.440;2023-02-08T16:31:47;21.25;;;8.57;;
70683;SDS011;58263;48.146;11.440;2023-02-08T16:34:21;19.70;;;8.38;;
70683;SDS011;58263;48.146;11.440;2023-02-08T16:36:50;14.93;;;7.68;;
70683;SDS011;58263;48.146;11.440;2023-02-08T16:42:01;15.87;;;7.47;;
70683;SDS011;58263;48.146;11.440;2023-02-08T16:44:34;16.90;;;8.65;;
70683;SDS011;58263;48.146;11.440;2023-02-08T16:47:00;18.85;;;7.55;;
70683;SDS011;58263;48.146;11.440;2023-02-08T16:49:48;14.55;;;7.05;;
70683;SDS011;58263;48.146;11.440;2023-02-08T16:52:14;16.80;;;7.75;;